createdAt,value
2019-01-20T00:01:14.162Z,66.33
2019-01-20T00:03:44.597Z,63.83
2019-01-20T00:06:15.026Z,71.00
2019-01-20T00:08:45.457Z,65.67
2019-01-20T00:11:16.667Z,66.20
2019-01-20T00:13:47.384Z,66.70
2019-01-20T00:16:17.813Z,68.90
2019-01-20T00:18:48.186Z,69.43
2019-01-20T00:21:18.699Z,68.77
2019-01-20T00:23:49.521Z,71.90
2019-01-20T00:26:19.758Z,71.23
2019-01-20T00:28:51.119Z,71.77
2019-01-20T00:31:21.565Z,69.00
2019-01-20T00:33:52.059Z,73.27
2019-01-20T00:36:22.354Z,74.00
2019-01-20T00:38:53.155Z,74.63
2019-01-20T00:41:24.288Z,71.20
2019-01-20T00:43:55.044Z,71.40
2019-01-20T00:46:25.545Z,73.57
2019-01-20T00:48:56.355Z,72.70
2019-01-20T00:51:27.133Z,74.87
2019-01-20T00:53:57.574Z,74.33
2019-01-20T00:56:28.092Z,72.87
2019-01-20T00:58:59.104Z,71.40
2019-01-20T01:01:29.661Z,76.13
2019-01-20T01:04:00.271Z,72.90
2019-01-20T01:06:30.714Z,76.83
2019-01-20T01:09:01.187Z,73.67
2019-01-20T01:11:33.501Z,74.50
2019-01-20T01:14:04.521Z,77.00
2019-01-20T01:16:35.333Z,74.07
2019-01-20T01:19:07.128Z,75.90
2019-01-20T01:21:38.526Z,78.77
2019-01-20T01:24:08.995Z,77.60
2019-01-20T01:26:39.382Z,76.33
2019-01-20T01:29:09.794Z,77.37
2019-01-20T01:31:39.974Z,75.37
2019-01-20T01:34:10.531Z,74.30
2019-01-20T01:36:40.782Z,75.23
2019-01-20T01:39:11.294Z,75.27
2019-01-20T01:41:41.556Z,75.60
2019-01-20T01:44:12.135Z,73.60
2019-01-20T01:46:42.849Z,74.53
2019-01-20T01:49:13.508Z,73.73
2019-01-20T01:51:44.110Z,73.17
2019-01-20T01:54:15.044Z,75.97
2019-01-20T01:56:45.643Z,75.37
2019-01-20T01:59:16.583Z,71.73
2019-01-20T02:01:47.198Z,75.40
2019-01-20T02:04:17.930Z,76.33
2019-01-20T02:06:48.441Z,72.97
2019-01-20T02:09:18.982Z,75.37
2019-01-20T02:11:49.723Z,75.30
2019-01-20T02:14:19.947Z,76.33
2019-01-20T02:16:50.423Z,76.63
2019-01-20T02:19:20.598Z,72.97
2019-01-20T02:21:51.387Z,72.23
2019-01-20T02:24:22.102Z,74.47
2019-01-20T02:26:52.846Z,67.67
2019-01-20T02:29:23.470Z,72.23
2019-01-20T02:31:54.054Z,70.83
2019-01-20T02:34:24.774Z,73.60
2019-01-20T02:36:55.383Z,74.47
2019-01-20T02:39:26.363Z,70.77
2019-01-20T02:41:56.913Z,72.60
2019-01-20T02:44:27.746Z,72.27
2019-01-20T02:46:58.361Z,71.77
2019-01-20T02:49:28.586Z,73.13
2019-01-20T02:51:58.976Z,73.80
2019-01-20T02:54:29.238Z,71.43
2019-01-20T02:56:59.857Z,73.53
2019-01-20T02:59:30.150Z,74.70
2019-01-20T03:02:00.626Z,70.80
2019-01-20T03:04:30.918Z,72.50
2019-01-20T03:07:01.442Z,71.47
2019-01-20T03:09:31.924Z,71.23
2019-01-20T03:12:03.640Z,71.83
2019-01-20T03:14:34.049Z,72.27
2019-01-20T03:17:04.690Z,70.07
2019-01-20T03:19:35.106Z,69.27
2019-01-20T03:22:06.113Z,70.10
2019-01-20T03:24:36.382Z,70.03
2019-01-20T03:27:06.957Z,71.27
2019-01-20T03:29:37.232Z,71.87
2019-01-20T03:32:07.606Z,69.43
2019-01-20T03:34:37.789Z,68.60
2019-01-20T03:37:08.263Z,70.13
2019-01-20T03:39:38.535Z,67.50
2019-01-20T03:42:12.013Z,66.90
2019-01-20T03:44:41.319Z,67.67
2019-01-20T03:47:12.258Z,69.30
2019-01-20T03:49:42.918Z,67.93
2019-01-20T03:52:13.631Z,69.20
2019-01-20T03:54:44.314Z,69.57
2019-01-20T03:57:15.026Z,70.00
2019-01-20T03:59:45.638Z,67.73
2019-01-20T04:02:17.811Z,65.47
2019-01-20T04:04:48.441Z,67.37
2019-01-20T04:07:19.427Z,67.13
2019-01-20T04:09:50.245Z,65.00
2019-01-20T04:12:21.122Z,67.23
2019-01-20T04:14:52.083Z,68.40
2019-01-20T04:17:22.523Z,67.47
2019-01-20T04:19:53.093Z,65.97
2019-01-20T04:22:23.284Z,66.50
2019-01-20T04:24:53.761Z,67.07
2019-01-20T04:27:24.023Z,68.07
2019-01-20T04:29:54.484Z,67.50
2019-01-20T04:32:24.821Z,64.70
2019-01-20T04:34:55.320Z,67.30
2019-01-20T04:37:25.575Z,64.47
2019-01-20T04:39:56.029Z,65.37
2019-01-20T04:42:29.258Z,64.90
2019-01-20T04:44:58.650Z,63.83
2019-01-20T04:47:29.775Z,66.97
2019-01-20T04:50:00.438Z,63.97
2019-01-20T04:52:31.063Z,65.63
2019-01-20T04:55:01.627Z,65.07
2019-01-20T04:57:32.767Z,64.77
2019-01-20T05:00:03.546Z,68.23
2019-01-20T05:02:34.264Z,62.03
2019-01-20T05:05:05.877Z,64.70
2019-01-20T05:07:36.480Z,64.43
2019-01-20T05:10:08.054Z,64.17
2019-01-20T05:12:38.689Z,68.93
2019-01-20T05:15:12.054Z,65.43
2019-01-20T05:17:42.511Z,64.40
2019-01-20T05:20:13.032Z,64.43
2019-01-20T05:22:43.595Z,61.23
2019-01-20T05:25:14.001Z,65.27
2019-01-20T05:27:44.508Z,62.23
2019-01-20T05:30:17.418Z,61.60
2019-01-20T05:32:47.967Z,64.43
2019-01-20T05:35:18.157Z,65.27
2019-01-20T05:37:48.619Z,66.03
2019-01-20T05:40:19.242Z,65.47
2019-01-20T05:42:49.728Z,63.13
2019-01-20T05:45:25.061Z,63.00
2019-01-20T05:47:55.713Z,67.93
2019-01-20T05:50:26.300Z,63.23
2019-01-20T05:52:57.401Z,63.40
2019-01-20T05:55:28.093Z,63.77
2019-01-20T05:57:58.769Z,66.27
2019-01-20T06:00:31.269Z,65.10
2019-01-20T06:03:02.645Z,63.43
2019-01-20T06:05:33.669Z,64.70
2019-01-20T06:08:04.392Z,63.50
2019-01-20T06:10:35.094Z,64.67
2019-01-20T06:13:06.037Z,65.50
2019-01-20T06:15:36.697Z,65.30
2019-01-20T06:18:06.989Z,63.37
2019-01-20T06:20:37.485Z,61.63
2019-01-20T06:23:08.638Z,63.30
2019-01-20T06:25:38.854Z,64.43
2019-01-20T06:28:09.185Z,64.87
2019-01-20T06:30:40.083Z,65.53
2019-01-20T06:33:10.454Z,67.43
2019-01-20T06:35:40.906Z,67.03
2019-01-20T06:38:11.362Z,63.93
2019-01-20T06:40:41.928Z,62.27
2019-01-20T06:43:12.327Z,63.73
2019-01-20T06:45:42.843Z,64.83
2019-01-20T06:48:13.331Z,66.97
2019-01-20T06:50:43.874Z,65.50
2019-01-20T06:53:14.649Z,63.97
2019-01-20T06:55:45.147Z,63.47
2019-01-20T06:58:15.407Z,64.43
2019-01-20T07:00:46.043Z,63.33
2019-01-20T07:03:16.306Z,64.87
2019-01-20T07:05:46.889Z,63.10
2019-01-20T07:08:17.146Z,61.40
2019-01-20T07:10:47.602Z,62.07
2019-01-20T07:13:17.860Z,64.90
2019-01-20T07:15:48.435Z,64.00
2019-01-20T07:18:18.706Z,63.43
2019-01-20T07:20:49.461Z,62.60
2019-01-20T07:23:19.724Z,64.50
2019-01-20T07:25:50.157Z,62.83
2019-01-20T07:28:20.503Z,61.50
2019-01-20T07:30:51.095Z,64.33
2019-01-20T07:33:21.462Z,64.87
2019-01-20T07:35:51.972Z,61.50
2019-01-20T07:38:22.234Z,62.33
2019-01-20T07:40:52.701Z,65.20
2019-01-20T07:43:22.879Z,65.07
2019-01-20T07:45:53.442Z,62.70
2019-01-20T07:48:23.914Z,63.80
2019-01-20T07:50:54.562Z,64.33
2019-01-20T07:53:25.668Z,61.93
2019-01-20T07:55:56.331Z,61.87
2019-01-20T07:58:27.198Z,62.10
2019-01-20T08:00:58.060Z,61.33
2019-01-20T08:03:28.889Z,62.13
2019-01-20T08:05:59.613Z,62.57
2019-01-20T08:08:30.502Z,64.07
2019-01-20T08:11:01.133Z,64.53
2019-01-20T08:13:32.000Z,62.50
2019-01-20T08:16:02.612Z,63.63
2019-01-20T08:18:33.292Z,62.50
2019-01-20T08:21:03.913Z,60.33
2019-01-20T08:23:34.534Z,62.13
2019-01-20T08:26:05.481Z,57.90
2019-01-20T08:28:36.010Z,61.20
2019-01-20T08:31:06.597Z,65.00
2019-01-20T08:33:37.509Z,62.70
2019-01-20T08:36:08.194Z,63.93
2019-01-20T08:38:39.332Z,59.33
2019-01-20T08:41:10.033Z,61.73
2019-01-20T08:43:40.913Z,59.87
2019-01-20T08:46:48.822Z,58.47
2019-01-20T08:49:19.622Z,61.37
2019-01-20T08:51:50.183Z,58.40
2019-01-20T08:54:20.666Z,61.77
2019-01-20T08:56:51.335Z,56.67
2019-01-20T08:59:22.135Z,58.37
2019-01-20T09:01:53.233Z,58.40
2019-01-20T09:04:23.778Z,59.63
2019-01-20T09:06:54.333Z,60.70
2019-01-20T09:09:24.987Z,58.53
2019-01-20T09:11:55.586Z,57.20
2019-01-20T09:14:26.426Z,56.87
2019-01-20T09:16:57.073Z,55.67
2019-01-20T09:19:27.806Z,60.13
2019-01-20T09:21:58.485Z,58.00
2019-01-20T09:24:29.228Z,56.63
2019-01-20T09:27:00.159Z,56.83
2019-01-20T09:29:30.961Z,59.47
2019-01-20T09:32:01.753Z,56.10
2019-01-20T09:34:32.482Z,56.47
2019-01-20T09:37:03.040Z,57.47
2019-01-20T09:39:34.206Z,57.37
2019-01-20T09:42:04.853Z,56.40
2019-01-20T09:44:35.574Z,57.63
2019-01-20T09:47:06.102Z,52.80
2019-01-20T09:49:36.889Z,54.10
2019-01-20T09:52:07.617Z,53.33
2019-01-20T09:54:38.238Z,56.93
2019-01-20T09:57:08.831Z,55.73
2019-01-20T09:59:39.562Z,52.67
2019-01-20T10:02:11.074Z,53.93
2019-01-20T10:04:41.682Z,53.17
2019-01-20T10:07:12.487Z,53.43
2019-01-20T10:09:43.197Z,52.93
2019-01-20T10:12:13.950Z,54.80
2019-01-20T10:14:44.717Z,51.27
2019-01-20T10:17:15.342Z,49.83
2019-01-20T10:19:46.097Z,51.33
2019-01-20T10:22:17.178Z,52.07
2019-01-20T10:24:47.892Z,51.43
2019-01-20T10:27:18.811Z,51.33
2019-01-20T10:29:49.495Z,53.10
2019-01-20T10:32:20.118Z,50.60
2019-01-20T10:34:52.216Z,50.57
2019-01-20T10:37:23.545Z,49.47
2019-01-20T10:39:54.549Z,47.40
2019-01-20T10:42:25.271Z,51.70
2019-01-20T10:44:56.018Z,48.07
2019-01-20T10:47:26.758Z,51.30
2019-01-20T10:49:57.867Z,48.63
2019-01-20T10:52:28.630Z,48.80
2019-01-20T10:54:59.327Z,48.87
2019-01-20T10:57:30.078Z,47.23
2019-01-20T11:00:00.724Z,48.37
2019-01-20T11:02:31.533Z,47.80
2019-01-20T11:05:03.553Z,51.83
2019-01-20T11:07:34.210Z,48.03
2019-01-20T11:10:05.406Z,46.23
2019-01-20T11:12:35.971Z,47.73
2019-01-20T11:15:07.304Z,44.03
2019-01-20T11:17:37.984Z,45.73
2019-01-20T11:20:11.174Z,44.90
2019-01-20T11:22:45.348Z,44.47
2019-01-20T11:25:19.392Z,45.07
2019-01-20T11:27:50.072Z,45.03
2019-01-20T11:30:20.738Z,44.03
2019-01-20T11:32:51.393Z,43.63
2019-01-20T11:35:22.792Z,40.80
2019-01-20T11:37:53.965Z,43.70
2019-01-20T11:40:24.562Z,42.63
2019-01-20T11:42:55.174Z,43.63
2019-01-20T11:45:27.687Z,42.73
2019-01-20T11:47:58.301Z,44.70
2019-01-20T11:50:28.960Z,42.07
2019-01-20T11:52:59.591Z,41.77
2019-01-20T11:55:30.426Z,42.70
2019-01-20T11:58:01.350Z,42.20
2019-01-20T12:00:37.034Z,41.33
2019-01-20T12:03:08.711Z,40.97
2019-01-20T12:05:41.104Z,39.07
2019-01-20T12:08:11.647Z,41.67
2019-01-20T12:10:42.029Z,39.37
2019-01-20T12:13:21.559Z,38.13
2019-01-20T12:15:52.100Z,39.10
2019-01-20T12:18:23.095Z,40.30
2019-01-20T12:20:53.298Z,36.10
2019-01-20T12:23:24.865Z,37.67
2019-01-20T12:25:55.216Z,38.07
2019-01-20T12:28:25.849Z,39.23
2019-01-20T12:30:56.576Z,36.33
2019-01-20T12:33:27.167Z,39.33
2019-01-20T12:35:57.459Z,38.47
2019-01-20T12:38:28.035Z,36.43
2019-01-20T12:40:58.267Z,36.43
2019-01-20T12:43:28.876Z,38.47
2019-01-20T12:45:59.170Z,36.97
2019-01-20T12:48:29.704Z,36.90
2019-01-20T12:51:00.397Z,34.90
2019-01-20T12:53:31.253Z,36.73
2019-01-20T12:56:03.434Z,34.53
2019-01-20T12:58:34.210Z,34.20
2019-01-20T13:01:05.132Z,34.50
2019-01-20T13:03:35.760Z,35.60
2019-01-20T13:06:06.636Z,33.57
2019-01-20T13:08:39.274Z,34.50
2019-01-20T13:11:09.811Z,32.77
2019-01-20T13:13:40.433Z,33.87
2019-01-20T13:16:11.228Z,31.67
2019-01-20T13:18:42.010Z,33.43
2019-01-20T13:21:12.694Z,31.13
2019-01-20T13:23:43.893Z,33.60
2019-01-20T13:26:15.229Z,30.87
2019-01-20T13:28:46.047Z,31.93
2019-01-20T13:31:16.753Z,32.50
2019-01-20T13:33:47.565Z,32.23
2019-01-20T13:36:18.465Z,31.73
2019-01-20T13:38:50.095Z,31.27
2019-01-20T13:41:27.386Z,33.07
2019-01-20T13:43:58.576Z,29.60
2019-01-20T13:46:29.256Z,30.03
2019-01-20T13:48:59.982Z,30.27
2019-01-20T13:51:30.862Z,31.27
2019-01-20T13:54:01.553Z,31.13
2019-01-20T13:56:32.524Z,29.70
2019-01-20T13:59:03.509Z,29.77
2019-01-20T14:01:34.746Z,31.47
2019-01-20T14:04:05.458Z,31.23
2019-01-20T14:06:36.118Z,31.43
2019-01-20T14:09:08.559Z,29.20
2019-01-20T14:11:39.276Z,28.70
2019-01-20T14:14:09.959Z,28.73
2019-01-20T14:16:41.045Z,29.60
2019-01-20T14:19:12.126Z,29.33
2019-01-20T14:21:46.759Z,28.50
2019-01-20T14:24:17.392Z,29.80
2019-01-20T14:26:47.719Z,29.00
2019-01-20T14:29:18.400Z,29.00
2019-01-20T14:31:48.763Z,30.77
2019-01-20T14:34:19.309Z,29.10
2019-01-20T14:36:49.958Z,25.77
2019-01-20T14:39:20.775Z,28.07
2019-01-20T14:41:50.978Z,28.77
2019-01-20T14:44:21.769Z,28.43
2019-01-20T14:46:52.039Z,28.80
2019-01-20T14:49:22.557Z,28.40
2019-01-20T14:51:52.839Z,26.80
2019-01-20T14:54:23.461Z,28.87
2019-01-20T14:56:53.822Z,29.93
2019-01-20T14:59:24.319Z,26.27
2019-01-20T15:01:56.073Z,27.67
2019-01-20T15:04:26.889Z,29.00
2019-01-20T15:06:57.444Z,28.60
2019-01-20T15:09:28.063Z,25.90
2019-01-20T15:11:58.374Z,26.10
2019-01-20T15:14:28.587Z,26.30
2019-01-20T15:16:58.982Z,26.23
2019-01-20T15:19:29.182Z,24.53
2019-01-20T15:21:59.541Z,26.77
2019-01-20T15:24:31.365Z,26.40
2019-01-20T15:27:01.933Z,27.10
2019-01-20T15:29:32.306Z,26.03
2019-01-20T15:32:02.870Z,25.53
2019-01-20T15:34:33.451Z,25.13
2019-01-20T15:37:03.897Z,24.87
2019-01-20T15:39:34.379Z,25.50
2019-01-20T15:42:04.650Z,25.97
2019-01-20T15:44:35.015Z,24.93
2019-01-20T15:47:05.644Z,23.47
2019-01-20T15:49:35.919Z,25.90
2019-01-20T15:52:06.493Z,22.63
2019-01-20T15:54:36.994Z,23.70
2019-01-20T15:57:07.618Z,25.40
2019-01-20T15:59:38.206Z,25.90
2019-01-20T16:02:08.903Z,24.77
2019-01-20T16:04:39.434Z,21.90
2019-01-20T16:07:10.030Z,23.50
2019-01-20T16:09:40.447Z,24.17
2019-01-20T16:12:11.806Z,23.60
2019-01-20T16:14:42.744Z,25.00
2019-01-20T16:17:13.954Z,22.33
2019-01-20T16:19:44.522Z,21.97
2019-01-20T16:22:15.184Z,22.80
2019-01-20T16:24:45.772Z,22.63
2019-01-20T16:27:16.962Z,22.13
2019-01-20T16:29:47.423Z,22.33
2019-01-20T16:32:18.113Z,25.07
2019-01-20T16:34:49.044Z,23.53
2019-01-20T16:37:19.534Z,23.90
2019-01-20T16:39:49.966Z,24.23
2019-01-20T16:42:20.400Z,23.20
2019-01-20T16:44:52.664Z,23.00
2019-01-20T16:47:24.933Z,24.40
2019-01-20T16:49:55.364Z,22.87
2019-01-20T16:52:25.797Z,21.70
2019-01-20T16:54:56.102Z,23.27
2019-01-20T16:57:26.574Z,22.63
2019-01-20T16:59:57.339Z,24.13
2019-01-20T17:02:27.889Z,22.87
2019-01-20T17:04:58.454Z,21.90
2019-01-20T17:07:28.838Z,21.47
2019-01-20T17:09:59.270Z,23.07
2019-01-20T17:12:29.603Z,21.70
2019-01-20T17:15:00.194Z,22.43
2019-01-20T17:17:30.798Z,22.10
2019-01-20T17:20:01.248Z,22.30
2019-01-20T17:22:31.497Z,20.57
2019-01-20T17:25:02.092Z,19.20
2019-01-20T17:27:32.426Z,21.00
2019-01-20T17:30:02.908Z,18.83
2019-01-20T17:32:33.263Z,20.47
2019-01-20T17:35:03.975Z,19.50
2019-01-20T17:37:34.377Z,21.47
2019-01-20T17:40:06.476Z,20.00
2019-01-20T17:42:36.997Z,19.67
2019-01-20T17:45:09.538Z,19.50
2019-01-20T17:47:46.993Z,19.57
2019-01-20T17:50:17.323Z,21.50
2019-01-20T17:52:47.684Z,19.93
2019-01-20T17:55:18.280Z,20.87
2019-01-20T17:57:48.564Z,20.37
2019-01-20T18:00:26.191Z,19.13
2019-01-20T18:02:56.865Z,21.33
2019-01-20T18:05:30.173Z,21.67
2019-01-20T18:08:01.197Z,19.47
2019-01-20T18:10:31.848Z,18.53
2019-01-20T18:13:02.310Z,17.73
2019-01-20T18:15:34.044Z,19.23
2019-01-20T18:18:04.417Z,18.33
2019-01-20T18:20:34.930Z,17.67
2019-01-20T18:23:05.232Z,18.67
2019-01-20T18:25:36.129Z,18.63
2019-01-20T18:28:06.705Z,20.23
2019-01-20T18:30:37.097Z,19.50
2019-01-20T18:33:07.559Z,19.70
2019-01-20T18:35:37.893Z,19.00
2019-01-20T18:38:08.185Z,19.13
2019-01-20T18:40:39.049Z,18.03
2019-01-20T18:43:09.288Z,18.53
2019-01-20T18:45:39.577Z,18.93
2019-01-20T18:48:09.781Z,18.30
2019-01-20T18:50:40.037Z,20.03
2019-01-20T18:53:10.649Z,17.93
2019-01-20T18:55:41.392Z,18.50
2019-01-20T18:58:12.070Z,16.43
2019-01-20T19:00:45.963Z,21.30
2019-01-20T19:03:17.021Z,19.07
2019-01-20T19:05:47.765Z,19.37
2019-01-20T19:08:18.525Z,16.13
2019-01-20T19:10:49.424Z,18.43
2019-01-20T19:13:20.571Z,18.87
2019-01-20T19:15:51.458Z,18.57
2019-01-20T19:18:22.158Z,18.17
2019-01-20T19:20:52.501Z,18.20
2019-01-20T19:23:23.563Z,19.63
2019-01-20T19:25:54.954Z,16.87
2019-01-20T19:28:25.454Z,17.63
2019-01-20T19:30:56.180Z,18.43
2019-01-20T19:33:26.665Z,18.13
2019-01-20T19:35:57.253Z,20.37
2019-01-20T19:38:27.833Z,17.00
2019-01-20T19:40:58.237Z,17.90
2019-01-20T19:43:28.889Z,16.80
2019-01-20T19:46:01.330Z,18.70
2019-01-20T19:48:32.054Z,20.67
2019-01-20T19:51:02.384Z,19.60
2019-01-20T19:53:33.302Z,16.17
2019-01-20T19:56:04.119Z,17.60
2019-01-20T19:58:34.759Z,16.53
2019-01-20T20:01:05.759Z,17.97
2019-01-20T20:03:36.444Z,18.40
2019-01-20T20:06:07.305Z,18.73
2019-01-20T20:08:38.158Z,17.00
2019-01-20T20:11:09.099Z,17.23
2019-01-20T20:13:39.947Z,17.13
2019-01-20T20:16:10.657Z,19.40
2019-01-20T20:18:41.312Z,19.10
2019-01-20T20:21:11.903Z,18.00
2019-01-20T20:23:42.625Z,17.63
2019-01-20T20:26:13.276Z,20.10
2019-01-20T20:28:44.006Z,19.70
2019-01-20T20:31:15.877Z,17.00
2019-01-20T20:33:46.497Z,17.80
2019-01-20T20:36:17.188Z,17.43
2019-01-20T20:38:47.960Z,18.93
2019-01-20T20:41:18.738Z,16.47
2019-01-20T20:43:49.623Z,17.97
2019-01-20T20:46:20.455Z,18.63
2019-01-20T20:48:51.593Z,18.07
2019-01-20T20:51:22.241Z,18.97
2019-01-20T20:53:57.333Z,19.27
2019-01-20T20:56:28.202Z,20.27
2019-01-20T20:58:59.680Z,18.63
2019-01-20T21:01:30.427Z,18.43
2019-01-20T21:04:00.687Z,18.47
2019-01-20T21:06:33.619Z,18.23
2019-01-20T21:09:05.586Z,18.63
2019-01-20T21:11:37.171Z,20.60
2019-01-20T21:14:07.795Z,18.87
2019-01-20T21:16:38.193Z,20.20
2019-01-20T21:19:08.513Z,19.10
2019-01-20T21:21:39.890Z,18.87
2019-01-20T21:24:10.256Z,18.57
2019-01-20T21:26:44.377Z,20.33
2019-01-20T21:29:12.723Z,18.73
2019-01-20T21:31:43.066Z,19.30
2019-01-20T21:34:14.509Z,18.13
2019-01-20T21:36:44.870Z,19.53
2019-01-20T21:39:15.174Z,19.23
2019-01-20T21:41:45.444Z,21.00
2019-01-20T21:44:16.017Z,19.97
2019-01-20T21:46:47.925Z,19.57
2019-01-20T21:49:18.457Z,20.30
2019-01-20T21:51:48.755Z,20.20
2019-01-20T21:54:19.690Z,19.67
2019-01-20T21:56:50.713Z,20.43
2019-01-20T21:59:21.514Z,20.53
2019-01-20T22:01:53.211Z,20.77
2019-01-20T22:04:32.752Z,20.17
2019-01-20T22:07:04.888Z,19.97
2019-01-20T22:09:35.980Z,22.33
2019-01-20T22:12:09.406Z,23.00
2019-01-20T22:14:43.902Z,22.77
2019-01-20T22:17:14.888Z,22.23
2019-01-20T22:19:46.348Z,22.20
2019-01-20T22:22:17.211Z,22.37
2019-01-20T22:24:47.830Z,21.50
2019-01-20T22:27:18.873Z,22.00
2019-01-20T22:29:49.982Z,20.10
2019-01-20T22:32:21.433Z,22.17
2019-01-20T22:34:52.306Z,20.63
2019-01-20T22:37:23.567Z,22.07
2019-01-20T22:39:54.894Z,22.93
2019-01-20T22:42:26.180Z,24.43
2019-01-20T22:44:57.582Z,22.23
2019-01-20T22:47:29.035Z,22.67
2019-01-20T22:50:00.065Z,22.90
2019-01-20T22:52:31.326Z,24.17
2019-01-20T22:55:03.215Z,21.20
2019-01-20T22:57:34.136Z,22.77
2019-01-20T23:00:32.611Z,21.23
2019-01-20T23:03:05.066Z,22.97
2019-01-20T23:05:36.552Z,24.13
2019-01-20T23:08:07.669Z,24.27
2019-01-20T23:10:37.906Z,21.93
2019-01-20T23:13:08.900Z,23.17
2019-01-20T23:15:40.837Z,23.43
2019-01-20T23:18:12.157Z,22.47
2019-01-20T23:20:42.567Z,22.17
2019-01-20T23:23:13.193Z,23.53
2019-01-20T23:25:43.578Z,24.57
2019-01-20T23:28:14.549Z,24.93
2019-01-20T23:30:46.313Z,26.70
2019-01-20T23:33:17.133Z,23.67
2019-01-20T23:35:47.510Z,21.40
2019-01-20T23:38:18.219Z,23.77
2019-01-20T23:40:48.953Z,22.43
2019-01-20T23:43:19.787Z,22.03
2019-01-20T23:45:50.334Z,24.03
2019-01-20T23:48:21.145Z,23.30
2019-01-20T23:50:52.238Z,23.47
2019-01-20T23:53:24.550Z,22.03
2019-01-20T23:55:54.962Z,23.13
2019-01-20T23:58:25.917Z,23.97
